createdAt,value
2018-05-02T00:00:06.399Z,1009.79
2018-05-02T00:01:06.129Z,1009.74
2018-05-02T00:02:06.162Z,1009.77
2018-05-02T00:03:06.207Z,1009.78
2018-05-02T00:04:06.285Z,1009.81
2018-05-02T00:05:06.298Z,1009.78
2018-05-02T00:06:06.291Z,1009.79
2018-05-02T00:07:06.610Z,1009.77
2018-05-02T00:08:06.343Z,1009.74
2018-05-02T00:09:06.375Z,1009.77
2018-05-02T00:10:06.408Z,1009.74
2018-05-02T00:11:06.433Z,1009.76
2018-05-02T00:12:06.464Z,1009.76
2018-05-02T00:13:06.548Z,1009.74
2018-05-02T00:14:06.860Z,1009.73
2018-05-02T00:15:06.682Z,1009.72
2018-05-02T00:16:06.596Z,1009.70
2018-05-02T00:17:06.616Z,1009.66
2018-05-02T00:18:06.788Z,1009.63
2018-05-02T00:19:06.696Z,1009.67
2018-05-02T00:20:06.834Z,1009.69
2018-05-02T00:21:07.110Z,1009.69
2018-05-02T00:22:06.775Z,1009.67
2018-05-02T00:23:06.813Z,1009.68
2018-05-02T00:24:06.847Z,1009.66
2018-05-02T00:25:06.863Z,1009.67
2018-05-02T00:26:06.893Z,1009.67
2018-05-02T00:27:07.118Z,1009.67
2018-05-02T00:28:06.989Z,1009.70
2018-05-02T00:29:07.041Z,1009.72
2018-05-02T00:30:07.020Z,1009.66
2018-05-02T00:31:07.108Z,1009.67
2018-05-02T00:32:07.159Z,1009.70
2018-05-02T00:33:07.118Z,1009.69
2018-05-02T00:34:07.533Z,1009.67
2018-05-02T00:35:07.171Z,1009.70
2018-05-02T00:36:07.407Z,1009.73
2018-05-02T00:37:07.286Z,1009.69
2018-05-02T00:38:07.265Z,1009.70
2018-05-02T00:39:07.298Z,1009.69
2018-05-02T00:40:07.378Z,1009.69
2018-05-02T00:41:07.666Z,1009.64
2018-05-02T00:42:07.394Z,1009.66
2018-05-02T00:43:07.419Z,1009.66
2018-05-02T00:44:07.457Z,1009.63
2018-05-02T00:45:07.498Z,1009.65
2018-05-02T00:46:07.571Z,1009.62
2018-05-02T00:47:07.897Z,1009.63
2018-05-02T00:48:07.645Z,1009.64
2018-05-02T00:49:07.634Z,1009.62
2018-05-02T00:50:07.637Z,1009.59
2018-05-02T00:51:07.718Z,1009.61
2018-05-02T00:52:07.732Z,1009.59
2018-05-02T00:53:08.125Z,1009.61
2018-05-02T00:54:07.816Z,1009.56
2018-05-02T00:55:07.789Z,1009.61
2018-05-02T00:56:07.870Z,1009.55
2018-05-02T00:57:07.853Z,1009.63
2018-05-02T00:58:07.881Z,1009.61
2018-05-02T00:59:08.214Z,1009.62
2018-05-02T01:00:07.980Z,1009.63
2018-05-02T01:01:07.979Z,1009.62
2018-05-02T01:02:08.074Z,1009.64
2018-05-02T01:03:08.035Z,1009.64
2018-05-02T01:04:08.064Z,1009.62
2018-05-02T01:05:08.448Z,1009.65
2018-05-02T01:06:08.139Z,1009.64
2018-05-02T01:07:08.158Z,1009.65
2018-05-02T01:08:08.186Z,1009.63
2018-05-02T01:09:08.221Z,1009.63
2018-05-02T01:10:08.247Z,1009.66
2018-05-02T01:11:08.578Z,1009.62
2018-05-02T01:12:08.408Z,1009.64
2018-05-02T01:13:08.389Z,1009.63
2018-05-02T01:14:08.372Z,1009.66
2018-05-02T01:15:08.399Z,1009.66
2018-05-02T01:16:08.443Z,1009.64
2018-05-02T01:17:08.812Z,1009.64
2018-05-02T01:18:08.566Z,1009.68
2018-05-02T01:19:08.929Z,1009.68
2018-05-02T01:20:08.553Z,1009.61
2018-05-02T01:21:08.589Z,1009.68
2018-05-02T01:22:08.637Z,1009.67
2018-05-02T01:23:08.949Z,1009.67
2018-05-02T01:24:08.732Z,1009.65
2018-05-02T01:25:08.705Z,1009.68
2018-05-02T01:26:08.734Z,1009.67
2018-05-02T01:27:08.820Z,1009.65
2018-05-02T01:28:08.852Z,1009.64
2018-05-02T01:29:09.181Z,1009.65
2018-05-02T01:30:08.859Z,1009.65
2018-05-02T01:31:08.893Z,1009.65
2018-05-02T01:32:08.979Z,1009.65
2018-05-02T01:33:08.972Z,1009.63
2018-05-02T01:34:08.982Z,1009.66
2018-05-02T01:35:09.311Z,1009.65
2018-05-02T01:36:09.048Z,1009.65
2018-05-02T01:37:09.075Z,1009.64
2018-05-02T01:38:09.155Z,1009.69
2018-05-02T01:39:09.249Z,1009.61
2018-05-02T01:40:09.171Z,1009.59
2018-05-02T01:41:09.545Z,1009.55
2018-05-02T01:42:09.225Z,1009.54
2018-05-02T01:43:09.325Z,1009.54
2018-05-02T01:44:09.305Z,1009.52
2018-05-02T01:45:09.329Z,1009.54
2018-05-02T01:46:09.355Z,1009.53
2018-05-02T01:47:09.746Z,1009.57
2018-05-02T01:48:09.413Z,1009.51
2018-05-02T01:49:09.438Z,1009.54
2018-05-02T01:50:09.520Z,1009.53
2018-05-02T01:51:09.501Z,1009.56
2018-05-02T01:52:09.537Z,1009.54
2018-05-02T01:53:09.919Z,1009.55
2018-05-02T01:54:09.612Z,1009.56
2018-05-02T01:55:09.680Z,1009.53
2018-05-02T01:56:09.757Z,1009.54
2018-05-02T01:57:09.686Z,1009.55
2018-05-02T01:58:09.847Z,1009.54
2018-05-02T01:59:09.763Z,1009.51
2018-05-02T02:00:10.126Z,1009.48
2018-05-02T02:01:09.869Z,1009.50
2018-05-02T02:02:09.862Z,1009.48
2018-05-02T02:03:09.865Z,1009.51
2018-05-02T02:04:09.895Z,1009.48
2018-05-02T02:05:09.995Z,1009.46
2018-05-02T02:06:09.999Z,1009.43
2018-05-02T02:07:10.288Z,1009.42
2018-05-02T02:08:10.032Z,1009.42
2018-05-02T02:09:10.049Z,1009.40
2018-05-02T02:10:10.085Z,1009.41
2018-05-02T02:11:10.117Z,1009.38
2018-05-02T02:12:10.142Z,1009.37
2018-05-02T02:13:10.221Z,1009.38
2018-05-02T02:14:10.552Z,1009.36
2018-05-02T02:15:10.241Z,1009.36
2018-05-02T02:16:10.479Z,1009.35
2018-05-02T02:17:10.346Z,1009.35
2018-05-02T02:18:10.337Z,1009.33
2018-05-02T02:19:10.459Z,1009.31
2018-05-02T02:20:11.181Z,1009.35
2018-05-02T02:21:10.722Z,1009.35
2018-05-02T02:22:10.445Z,1009.33
2018-05-02T02:23:10.540Z,1009.32
2018-05-02T02:24:10.541Z,1009.26
2018-05-02T02:25:10.531Z,1009.28
2018-05-02T02:26:10.594Z,1009.25
2018-05-02T02:27:10.658Z,1009.21
2018-05-02T02:28:10.925Z,1009.19
2018-05-02T02:29:10.662Z,1009.18
2018-05-02T02:30:10.722Z,1009.20
2018-05-02T02:31:10.720Z,1009.16
2018-05-02T02:32:10.765Z,1009.20
2018-05-02T02:33:10.814Z,1009.16
2018-05-02T02:34:10.829Z,1009.12
2018-05-02T02:35:11.163Z,1009.15
2018-05-02T02:36:10.933Z,1009.15
2018-05-02T02:37:10.981Z,1009.12
2018-05-02T02:38:10.944Z,1009.15
2018-05-02T02:39:10.979Z,1009.11
2018-05-02T02:40:10.997Z,1009.13
2018-05-02T02:41:11.099Z,1009.12
2018-05-02T02:42:11.404Z,1009.10
2018-05-02T02:43:11.088Z,1009.12
2018-05-02T02:44:11.139Z,1009.12
2018-05-02T02:45:11.196Z,1009.16
2018-05-02T02:46:11.174Z,1009.17
2018-05-02T02:47:11.204Z,1009.14
2018-05-02T02:48:11.238Z,1009.14
2018-05-02T02:49:11.579Z,1009.12
2018-05-02T02:50:11.354Z,1009.17
2018-05-02T02:51:11.326Z,1009.15
2018-05-02T02:52:11.359Z,1009.16
2018-05-02T02:53:11.386Z,1009.18
2018-05-02T02:54:11.449Z,1009.17
2018-05-02T02:55:11.552Z,1009.19
2018-05-02T02:56:11.882Z,1009.19
2018-05-02T02:57:11.506Z,1009.20
2018-05-02T02:58:11.542Z,1009.19
2018-05-02T02:59:11.578Z,1009.22
2018-05-02T03:00:11.622Z,1009.23
2018-05-02T03:01:11.737Z,1009.24
2018-05-02T03:02:11.669Z,1009.25
2018-05-02T03:03:12.043Z,1009.25
2018-05-02T03:04:11.727Z,1009.24
2018-05-02T03:05:11.749Z,1009.24
2018-05-02T03:06:11.870Z,1009.27
2018-05-02T03:07:11.811Z,1009.25
2018-05-02T03:08:11.887Z,1009.28
2018-05-02T03:09:11.902Z,1009.31
2018-05-02T03:10:11.907Z,1009.27
2018-05-02T03:11:11.933Z,1009.23
2018-05-02T03:12:11.971Z,1009.28
2018-05-02T03:13:11.999Z,1009.30
2018-05-02T03:14:12.032Z,1009.33
2018-05-02T03:15:12.124Z,1009.32
2018-05-02T03:16:12.495Z,1009.36
2018-05-02T03:17:12.174Z,1009.33
2018-05-02T03:18:12.146Z,1009.33
2018-05-02T03:19:12.244Z,1009.35
2018-05-02T03:20:12.261Z,1009.33
2018-05-02T03:21:12.235Z,1009.37
2018-05-02T03:22:12.614Z,1009.38
2018-05-02T03:23:12.309Z,1009.41
2018-05-02T03:24:12.326Z,1009.33
2018-05-02T03:25:12.360Z,1009.37
2018-05-02T03:26:12.431Z,1009.34
2018-05-02T03:27:12.477Z,1009.37
2018-05-02T03:28:12.797Z,1009.38
2018-05-02T03:29:12.480Z,1009.33
2018-05-02T03:30:12.509Z,1009.38
2018-05-02T03:31:12.571Z,1009.37
2018-05-02T03:32:12.568Z,1009.35
2018-05-02T03:33:12.600Z,1009.35
2018-05-02T03:34:12.981Z,1009.33
2018-05-02T03:35:12.659Z,1009.34
2018-05-02T03:36:12.694Z,1009.34
2018-05-02T03:37:13.006Z,1009.33
2018-05-02T03:38:12.807Z,1009.30
2018-05-02T03:39:12.794Z,1009.31
2018-05-02T03:40:13.113Z,1009.28
2018-05-02T03:41:12.902Z,1009.29
2018-05-02T03:42:12.941Z,1009.29
2018-05-02T03:43:12.898Z,1009.29
2018-05-02T03:44:13.008Z,1009.30
2018-05-02T03:45:12.982Z,1009.28
2018-05-02T03:46:13.339Z,1009.29
2018-05-02T03:47:13.020Z,1009.27
2018-05-02T03:48:13.102Z,1009.28
2018-05-02T03:49:13.171Z,1009.24
2018-05-02T03:50:13.116Z,1009.22
2018-05-02T03:52:13.601Z,1009.25
2018-05-02T03:53:13.247Z,1009.24
2018-05-02T03:54:13.233Z,1009.30
2018-05-02T03:55:13.318Z,1009.28
2018-05-02T03:56:13.303Z,1009.33
2018-05-02T03:57:13.372Z,1009.33
2018-05-02T03:58:13.720Z,1009.33
2018-05-02T03:59:13.438Z,1009.36
2018-05-02T04:00:13.416Z,1009.38
2018-05-02T04:01:13.452Z,1009.32
2018-05-02T04:02:13.538Z,1009.34
2018-05-02T04:03:13.581Z,1009.34
2018-05-02T04:04:13.945Z,1009.35
2018-05-02T04:05:13.573Z,1009.34
2018-05-02T04:06:13.605Z,1009.37
2018-05-02T04:07:13.721Z,1009.36
2018-05-02T04:08:13.689Z,1009.36
2018-05-02T04:09:13.746Z,1009.32
2018-05-02T04:10:14.076Z,1009.32
2018-05-02T04:11:13.810Z,1009.33
2018-05-02T04:12:14.025Z,1009.32
2018-05-02T04:13:13.814Z,1009.35
2018-05-02T04:14:13.898Z,1009.36
2018-05-02T04:15:13.971Z,1009.39
2018-05-02T04:16:14.268Z,1009.44
2018-05-02T04:17:13.952Z,1009.42
2018-05-02T04:18:14.047Z,1009.42
2018-05-02T04:19:14.000Z,1009.43
2018-05-02T04:20:14.080Z,1009.44
2018-05-02T04:21:14.120Z,1009.49
2018-05-02T04:22:14.460Z,1009.46
2018-05-02T04:23:14.112Z,1009.45
2018-05-02T04:24:14.226Z,1009.49
2018-05-02T04:25:14.283Z,1009.50
2018-05-02T04:26:14.216Z,1009.50
2018-05-02T04:27:14.381Z,1009.49
2018-05-02T04:28:14.689Z,1009.52
2018-05-02T04:29:14.384Z,1009.53
2018-05-02T04:30:14.376Z,1009.55
2018-05-02T04:31:14.349Z,1009.52
2018-05-02T04:32:14.422Z,1009.55
2018-05-02T04:33:14.489Z,1009.52
2018-05-02T04:34:14.493Z,1009.55
2018-05-02T04:35:14.831Z,1009.55
2018-05-02T04:36:14.532Z,1009.53
2018-05-02T04:37:14.540Z,1009.52
2018-05-02T04:38:14.696Z,1009.51
2018-05-02T04:39:14.648Z,1009.50
2018-05-02T04:40:14.680Z,1009.53
2018-05-02T04:41:14.761Z,1009.49
2018-05-02T04:42:14.985Z,1009.48
2018-05-02T04:43:14.994Z,1009.48
2018-05-02T04:44:14.802Z,1009.53
2018-05-02T04:45:14.782Z,1009.53
2018-05-02T04:46:14.809Z,1009.51
2018-05-02T04:47:14.860Z,1009.51
2018-05-02T04:48:14.929Z,1009.55
2018-05-02T04:49:15.206Z,1009.55
2018-05-02T04:50:15.021Z,1009.56
2018-05-02T04:51:15.029Z,1009.56
2018-05-02T04:52:15.070Z,1009.55
2018-05-02T04:53:15.115Z,1009.58
2018-05-02T04:54:15.097Z,1009.60
2018-05-02T04:55:15.114Z,1009.62
2018-05-02T04:56:15.412Z,1009.62
2018-05-02T04:57:15.137Z,1009.62
2018-05-02T04:58:15.172Z,1009.60
2018-05-02T04:59:15.268Z,1009.62
2018-05-02T05:00:15.232Z,1009.62
2018-05-02T05:01:15.339Z,1009.66
2018-05-02T05:02:15.289Z,1009.67
2018-05-02T05:03:15.685Z,1009.68
2018-05-02T05:04:15.363Z,1009.66
2018-05-02T05:05:15.383Z,1009.67
2018-05-02T05:06:15.417Z,1009.71
2018-05-02T05:07:15.444Z,1009.72
2018-05-02T05:08:15.520Z,1009.73
2018-05-02T05:09:15.500Z,1009.73
2018-05-02T05:10:15.840Z,1009.74
2018-05-02T05:11:15.571Z,1009.74
2018-05-02T05:12:15.722Z,1009.82
2018-05-02T05:13:15.624Z,1009.78
2018-05-02T05:14:15.762Z,1009.78
2018-05-02T05:15:15.738Z,1009.82
2018-05-02T05:16:15.772Z,1009.83
2018-05-02T05:17:16.102Z,1009.83
2018-05-02T05:18:15.885Z,1009.85
2018-05-02T05:19:15.887Z,1009.82
2018-05-02T05:20:15.835Z,1009.84
2018-05-02T05:21:15.865Z,1009.85
2018-05-02T05:22:15.919Z,1009.85
2018-05-02T05:23:15.984Z,1009.85
2018-05-02T05:24:16.372Z,1009.88
2018-05-02T05:25:16.040Z,1009.85
2018-05-02T05:26:16.017Z,1009.89
2018-05-02T05:27:16.098Z,1009.90
2018-05-02T05:28:16.249Z,1009.87
2018-05-02T05:29:16.118Z,1009.89
2018-05-02T05:30:16.243Z,1009.88
2018-05-02T05:31:16.173Z,1009.89
2018-05-02T05:32:16.200Z,1009.88
2018-05-02T05:33:16.230Z,1009.87
2018-05-02T05:34:16.602Z,1009.91
2018-05-02T05:35:16.403Z,1009.90
2018-05-02T05:36:16.352Z,1009.86
2018-05-02T05:37:16.700Z,1009.88
2018-05-02T05:38:16.399Z,1009.86
2018-05-02T05:39:16.470Z,1009.85
2018-05-02T05:40:16.561Z,1009.86
2018-05-02T05:41:16.586Z,1009.85
2018-05-02T05:42:16.511Z,1009.86
2018-05-02T05:43:16.585Z,1009.86
2018-05-02T05:44:16.930Z,1009.90
2018-05-02T05:45:16.644Z,1009.85
2018-05-02T05:46:16.699Z,1009.89
2018-05-02T05:47:16.719Z,1009.89
2018-05-02T05:48:16.740Z,1009.92
2018-05-02T05:49:16.722Z,1009.94
2018-05-02T05:50:17.057Z,1009.94
2018-05-02T05:51:16.845Z,1009.97
2018-05-02T05:52:16.841Z,1009.94
2018-05-02T05:53:16.864Z,1009.94
2018-05-02T05:54:16.900Z,1009.93
2018-05-02T05:55:16.900Z,1009.88
2018-05-02T05:56:17.289Z,1009.92
2018-05-02T05:57:16.973Z,1009.91
2018-05-02T05:58:17.004Z,1009.92
2018-05-02T05:59:17.153Z,1009.95
2018-05-02T06:00:17.052Z,1009.95
2018-05-02T06:01:17.235Z,1009.96
2018-05-02T06:02:17.417Z,1009.93
2018-05-02T06:03:17.143Z,1009.94
2018-05-02T06:04:17.229Z,1009.89
2018-05-02T06:05:17.215Z,1009.90
2018-05-02T06:06:17.375Z,1009.92
2018-05-02T06:07:17.357Z,1009.89
2018-05-02T06:08:17.641Z,1009.88
2018-05-02T06:09:17.334Z,1009.91
2018-05-02T06:10:17.407Z,1009.91
2018-05-02T06:11:17.435Z,1009.95
2018-05-02T06:12:17.418Z,1009.92
2018-05-02T06:13:17.514Z,1009.92
2018-05-02T06:14:17.896Z,1009.95
2018-05-02T06:15:17.623Z,1009.95
2018-05-02T06:16:17.593Z,1009.92
2018-05-02T06:17:17.599Z,1009.97
2018-05-02T06:18:17.616Z,1009.94
2018-05-02T06:19:17.645Z,1009.93
2018-05-02T06:20:18.127Z,1009.93
2018-05-02T06:21:17.708Z,1009.90
2018-05-02T06:22:17.763Z,1009.89
2018-05-02T06:23:17.812Z,1009.89
2018-05-02T06:24:17.894Z,1009.88
2018-05-02T06:25:17.816Z,1009.87
2018-05-02T06:26:18.214Z,1009.85
2018-05-02T06:27:17.892Z,1009.82
2018-05-02T06:28:17.914Z,1009.81
2018-05-02T06:29:17.976Z,1009.80
2018-05-02T06:30:18.122Z,1009.80
2018-05-02T06:31:18.103Z,1009.78
2018-05-02T06:32:18.439Z,1009.79
2018-05-02T06:33:18.113Z,1009.78
2018-05-02T06:34:18.091Z,1009.80
2018-05-02T06:35:18.123Z,1009.78
2018-05-02T06:36:18.209Z,1009.80
2018-05-02T06:37:18.202Z,1009.81
2018-05-02T06:38:18.797Z,1009.78
2018-05-02T06:39:18.255Z,1009.79
2018-05-02T06:40:18.278Z,1009.74
2018-05-02T06:41:18.334Z,1009.80
2018-05-02T06:42:18.366Z,1009.79
2018-05-02T06:43:18.510Z,1009.78
2018-05-02T06:44:18.803Z,1009.75
2018-05-02T06:45:18.462Z,1009.77
2018-05-02T06:46:18.459Z,1009.77
2018-05-02T06:47:18.565Z,1009.76
2018-05-02T06:48:18.530Z,1009.71
2018-05-02T06:49:18.619Z,1009.76
2018-05-02T06:50:18.918Z,1009.81
2018-05-02T06:51:18.668Z,1009.78
2018-05-02T06:52:18.647Z,1009.79
2018-05-02T06:53:18.699Z,1009.78
2018-05-02T06:54:18.764Z,1009.76
2018-05-02T06:55:18.796Z,1009.83
2018-05-02T06:56:19.070Z,1009.82
2018-05-02T06:57:18.806Z,1009.81
2018-05-02T06:58:18.938Z,1009.81
2018-05-02T06:59:18.870Z,1009.83
2018-05-02T07:00:18.896Z,1009.82
2018-05-02T07:01:18.949Z,1009.81
2018-05-02T07:02:18.970Z,1009.79
2018-05-02T07:03:18.997Z,1009.84
2018-05-02T07:04:19.074Z,1009.81
2018-05-02T07:05:19.119Z,1009.81
2018-05-02T07:06:19.110Z,1009.83
2018-05-02T07:07:19.159Z,1009.81
2018-05-02T07:08:19.141Z,1009.84
2018-05-02T07:09:19.525Z,1009.82
2018-05-02T07:10:19.251Z,1009.80
2018-05-02T07:11:19.288Z,1009.80
2018-05-02T07:12:19.264Z,1009.80
2018-05-02T07:13:19.302Z,1009.78
2018-05-02T07:14:19.336Z,1009.82
2018-05-02T07:15:19.361Z,1009.79
2018-05-02T07:16:20.188Z,1009.84
2018-05-02T07:17:19.456Z,1009.82
2018-05-02T07:18:19.683Z,1009.81
2018-05-02T07:19:19.488Z,1009.82
2018-05-02T07:20:19.517Z,1009.83
2018-05-02T07:21:19.596Z,1009.78
2018-05-02T07:22:19.583Z,1009.75
2018-05-02T07:23:20.000Z,1009.78
2018-05-02T07:24:19.662Z,1009.82
2018-05-02T07:25:19.668Z,1009.84
2018-05-02T07:26:19.726Z,1009.82
2018-05-02T07:27:19.729Z,1009.79
2018-05-02T07:28:19.830Z,1009.77
2018-05-02T07:29:20.287Z,1009.77
2018-05-02T07:30:20.122Z,1009.73
2018-05-02T07:31:19.853Z,1009.71
2018-05-02T07:32:20.344Z,1009.69
2018-05-02T07:33:19.912Z,1009.71
2018-05-02T07:34:19.944Z,1009.67
2018-05-02T07:35:19.988Z,1009.72
2018-05-02T07:36:20.015Z,1009.73
2018-05-02T07:37:20.406Z,1009.71
2018-05-02T07:38:20.076Z,1009.74
2018-05-02T07:39:20.155Z,1009.72
2018-05-02T07:40:20.137Z,1009.73
2018-05-02T07:41:20.163Z,1009.70
2018-05-02T07:42:20.195Z,1009.68
2018-05-02T07:43:20.249Z,1009.69
2018-05-02T07:44:20.602Z,1009.67
2018-05-02T07:45:20.291Z,1009.65
2018-05-02T07:46:20.577Z,1009.66
2018-05-02T07:47:20.397Z,1009.65
2018-05-02T07:48:20.434Z,1009.66
2018-05-02T07:49:20.478Z,1009.68
2018-05-02T07:50:20.516Z,1009.65
2018-05-02T07:51:20.823Z,1009.65
2018-05-02T07:52:20.505Z,1009.60
2018-05-02T07:53:20.536Z,1009.59
2018-05-02T07:54:20.575Z,1009.60
2018-05-02T07:55:20.621Z,1009.55
2018-05-02T07:56:20.632Z,1009.56
2018-05-02T07:57:20.729Z,1009.54
2018-05-02T07:58:21.192Z,1009.54
2018-05-02T07:59:20.726Z,1009.54
2018-05-02T08:00:20.824Z,1009.50
2018-05-02T08:01:20.795Z,1009.53
2018-05-02T08:02:20.827Z,1009.53
2018-05-02T08:03:20.861Z,1009.55
2018-05-02T08:04:20.952Z,1009.57
2018-05-02T08:05:21.265Z,1009.59
2018-05-02T08:06:21.041Z,1009.56
2018-05-02T08:07:21.019Z,1009.60
2018-05-02T08:08:21.020Z,1009.59
2018-05-02T08:09:21.030Z,1009.59
2018-05-02T08:10:21.059Z,1009.58
2018-05-02T08:11:21.101Z,1009.57
2018-05-02T08:12:21.480Z,1009.60
2018-05-02T08:13:21.152Z,1009.57
2018-05-02T08:14:21.185Z,1009.57
2018-05-02T08:15:21.285Z,1009.50
2018-05-02T08:16:21.389Z,1009.52
2018-05-02T08:17:21.292Z,1009.50
2018-05-02T08:18:21.467Z,1009.47
2018-05-02T08:19:21.644Z,1009.45
2018-05-02T08:20:21.384Z,1009.44
2018-05-02T08:21:21.442Z,1009.44
2018-05-02T08:22:21.438Z,1009.45
2018-05-02T08:23:21.529Z,1009.47
2018-05-02T08:24:21.508Z,1009.46
2018-05-02T08:25:21.881Z,1009.40
2018-05-02T08:26:21.620Z,1009.39
2018-05-02T08:27:21.594Z,1009.37
2018-05-02T08:28:21.630Z,1009.35
2018-05-02T08:29:21.670Z,1009.33
2018-05-02T08:30:21.711Z,1009.31
2018-05-02T08:31:22.119Z,1009.34
2018-05-02T08:32:21.751Z,1009.30
2018-05-02T08:33:21.804Z,1009.31
2018-05-02T08:34:21.817Z,1009.22
2018-05-02T08:35:21.935Z,1009.24
2018-05-02T08:36:21.949Z,1009.17
2018-05-02T08:37:22.322Z,1009.17
2018-05-02T08:38:21.968Z,1009.14
2018-05-02T08:39:21.967Z,1009.13
2018-05-02T08:40:22.010Z,1009.16
2018-05-02T08:41:22.032Z,1009.12
2018-05-02T08:42:22.511Z,1009.12
2018-05-02T08:43:22.646Z,1009.13
2018-05-02T08:44:22.119Z,1009.08
2018-05-02T08:45:22.152Z,1009.09
2018-05-02T08:46:22.191Z,1009.06
2018-05-02T08:47:22.218Z,1009.01
2018-05-02T08:48:22.302Z,1008.97
2018-05-02T08:49:22.637Z,1008.96
2018-05-02T08:50:22.359Z,1008.99
2018-05-02T08:51:22.392Z,1008.93
2018-05-02T08:52:22.373Z,1008.99
2018-05-02T08:53:22.443Z,1008.98
2018-05-02T08:54:22.583Z,1008.99
2018-05-02T08:55:22.780Z,1008.96
2018-05-02T08:56:22.501Z,1009.01
2018-05-02T08:57:22.609Z,1008.97
2018-05-02T08:58:22.561Z,1008.99
2018-05-02T08:59:22.593Z,1009.02
2018-05-02T09:00:22.692Z,1009.01
2018-05-02T09:01:22.955Z,1009.02
2018-05-02T09:02:22.739Z,1009.01
2018-05-02T09:03:22.721Z,1008.99
2018-05-02T09:04:22.798Z,1008.97
2018-05-02T09:05:22.846Z,1008.95
2018-05-02T09:06:22.863Z,1008.96
2018-05-02T09:07:23.209Z,1008.93
2018-05-02T09:08:22.879Z,1008.93
2018-05-02T09:09:22.905Z,1008.89
2018-05-02T09:10:22.987Z,1008.94
2018-05-02T09:11:23.023Z,1008.96
2018-05-02T09:12:23.013Z,1008.90
2018-05-02T09:13:23.337Z,1008.88
2018-05-02T09:14:23.078Z,1008.84
2018-05-02T09:15:23.143Z,1008.80
2018-05-02T09:16:23.176Z,1008.81
2018-05-02T09:17:23.162Z,1008.77
2018-05-02T09:18:23.194Z,1008.76
2018-05-02T09:19:23.622Z,1008.77
2018-05-02T09:20:23.304Z,1008.77
2018-05-02T09:21:23.349Z,1008.75
2018-05-02T09:22:23.394Z,1008.76
2018-05-02T09:23:23.347Z,1008.78
2018-05-02T09:24:23.429Z,1008.79
2018-05-02T09:25:23.809Z,1008.78
2018-05-02T09:26:23.443Z,1008.77
2018-05-02T09:27:23.487Z,1008.81
2018-05-02T09:28:23.511Z,1008.81
2018-05-02T09:29:23.563Z,1008.80
2018-05-02T09:30:23.575Z,1008.79
2018-05-02T09:31:23.967Z,1008.75
2018-05-02T09:32:23.638Z,1008.77
2018-05-02T09:33:23.664Z,1008.76
2018-05-02T09:34:23.718Z,1008.75
2018-05-02T09:35:23.734Z,1008.75
2018-05-02T09:36:23.817Z,1008.67
2018-05-02T09:37:24.091Z,1008.63
2018-05-02T09:38:23.824Z,1008.65
2018-05-02T09:39:23.864Z,1008.61
2018-05-02T09:40:23.897Z,1008.63
2018-05-02T09:41:23.923Z,1008.61
2018-05-02T09:42:23.966Z,1008.56
2018-05-02T09:43:24.033Z,1008.54
2018-05-02T09:44:24.340Z,1008.53
2018-05-02T09:45:24.109Z,1008.56
2018-05-02T09:46:24.084Z,1008.52
2018-05-02T09:47:24.216Z,1008.45
2018-05-02T09:48:24.159Z,1008.45
2018-05-02T09:49:24.177Z,1008.46
2018-05-02T09:50:24.219Z,1008.39
2018-05-02T09:51:24.600Z,1008.41
2018-05-02T09:52:24.326Z,1008.40
2018-05-02T09:53:24.306Z,1008.38
2018-05-02T09:54:24.657Z,1008.42
2018-05-02T09:55:24.381Z,1008.36
2018-05-02T09:56:24.458Z,1008.37
2018-05-02T09:57:24.441Z,1008.34
2018-05-02T09:58:24.825Z,1008.37
2018-05-02T09:59:24.506Z,1008.34
2018-05-02T10:00:24.588Z,1008.37
2018-05-02T10:01:24.557Z,1008.36
2018-05-02T10:02:24.596Z,1008.32
2018-05-02T10:03:24.631Z,1008.35
2018-05-02T10:04:24.675Z,1008.36
2018-05-02T10:05:24.990Z,1008.34
2018-05-02T10:06:24.784Z,1008.32
2018-05-02T10:07:24.794Z,1008.40
2018-05-02T10:08:24.790Z,1008.45
2018-05-02T10:09:24.856Z,1008.44
2018-05-02T10:10:24.915Z,1008.42
2018-05-02T10:11:24.966Z,1008.38
2018-05-02T10:12:25.224Z,1008.42
2018-05-02T10:13:24.948Z,1008.42
2018-05-02T10:14:24.990Z,1008.42
2018-05-02T10:15:25.120Z,1008.43
2018-05-02T10:16:25.058Z,1008.35
2018-05-02T10:17:25.089Z,1008.42
2018-05-02T10:18:25.157Z,1008.33
2018-05-02T10:19:25.446Z,1008.33
2018-05-02T10:20:25.172Z,1008.30
2018-05-02T10:21:25.234Z,1008.30
2018-05-02T10:22:25.333Z,1008.23
2018-05-02T10:23:25.274Z,1008.22
2018-05-02T10:24:25.418Z,1008.21
2018-05-02T10:25:25.333Z,1008.24
2018-05-02T10:26:25.715Z,1008.27
2018-05-02T10:27:25.453Z,1008.26
2018-05-02T10:28:25.444Z,1008.28
2018-05-02T10:29:25.513Z,1008.25
2018-05-02T10:30:25.500Z,1008.24
2018-05-02T10:31:25.532Z,1008.24
2018-05-02T10:32:25.711Z,1008.27
2018-05-02T10:33:25.942Z,1008.21
2018-05-02T10:34:25.689Z,1008.19
2018-05-02T10:35:25.656Z,1008.24
2018-05-02T10:36:25.692Z,1008.20
2018-05-02T10:37:25.734Z,1008.17
2018-05-02T10:38:25.760Z,1008.13
2018-05-02T10:39:25.783Z,1008.13
2018-05-02T10:40:26.127Z,1008.13
2018-05-02T10:41:25.903Z,1008.13
2018-05-02T10:42:25.884Z,1008.14
2018-05-02T10:43:25.925Z,1008.14
2018-05-02T10:44:25.943Z,1008.12
2018-05-02T10:45:25.976Z,1008.08
2018-05-02T10:46:26.048Z,1008.10
2018-05-02T10:47:26.444Z,1008.06
2018-05-02T10:48:26.085Z,1008.05
2018-05-02T10:49:26.125Z,1008.04
2018-05-02T10:50:26.227Z,1007.98
2018-05-02T10:51:26.220Z,1007.99
2018-05-02T10:52:26.209Z,1008.01
2018-05-02T10:53:26.235Z,1007.96
2018-05-02T10:54:26.567Z,1007.94
2018-05-02T10:55:26.445Z,1007.95
2018-05-02T10:56:26.344Z,1007.91
2018-05-02T10:57:26.367Z,1007.89
2018-05-02T10:58:26.413Z,1007.93
2018-05-02T10:59:26.484Z,1007.96
2018-05-02T11:00:26.826Z,1007.88
2018-05-02T11:01:26.547Z,1007.89
2018-05-02T11:02:26.587Z,1007.82
2018-05-02T11:03:26.602Z,1007.82
2018-05-02T11:04:26.612Z,1007.85
2018-05-02T11:05:26.625Z,1007.80
2018-05-02T11:06:27.032Z,1007.78
2018-05-02T11:07:26.700Z,1007.79
2018-05-02T11:08:26.798Z,1007.81
2018-05-02T11:09:26.807Z,1007.78
2018-05-02T11:10:26.831Z,1007.76
2018-05-02T11:11:26.866Z,1007.73
2018-05-02T11:12:27.145Z,1007.73
2018-05-02T11:13:26.891Z,1007.72
2018-05-02T11:14:26.918Z,1007.73
2018-05-02T11:15:26.948Z,1007.70
2018-05-02T11:16:27.141Z,1007.69
2018-05-02T11:17:27.033Z,1007.65
2018-05-02T11:18:27.423Z,1007.69
2018-05-02T11:19:27.080Z,1007.71
2018-05-02T11:20:27.177Z,1007.70
2018-05-02T11:21:27.141Z,1007.71
2018-05-02T11:22:27.177Z,1007.67
2018-05-02T11:23:27.317Z,1007.71
2018-05-02T11:24:27.539Z,1007.66
2018-05-02T11:25:27.296Z,1007.66
2018-05-02T11:26:27.302Z,1007.63
2018-05-02T11:27:27.393Z,1007.63
2018-05-02T11:28:27.537Z,1007.55
2018-05-02T11:29:27.414Z,1007.56
2018-05-02T11:30:27.786Z,1007.54
2018-05-02T11:31:27.472Z,1007.54
2018-05-02T11:32:27.498Z,1007.59
2018-05-02T11:33:27.573Z,1007.49
2018-05-02T11:34:27.574Z,1007.54
2018-05-02T11:35:27.674Z,1007.56
2018-05-02T11:36:28.020Z,1007.52
2018-05-02T11:37:28.024Z,1007.50
2018-05-02T11:38:27.704Z,1007.47
2018-05-02T11:39:27.774Z,1007.47
2018-05-02T11:40:27.770Z,1007.43
2018-05-02T11:41:27.793Z,1007.47
2018-05-02T11:42:28.181Z,1007.44
2018-05-02T11:43:27.907Z,1007.47
2018-05-02T11:44:27.939Z,1007.45
2018-05-02T11:45:27.924Z,1007.46
2018-05-02T11:46:27.970Z,1007.46
2018-05-02T11:47:27.984Z,1007.46
2018-05-02T11:48:28.396Z,1007.42
2018-05-02T11:49:28.050Z,1007.39
2018-05-02T11:50:28.095Z,1007.41
2018-05-02T11:51:28.155Z,1007.43
2018-05-02T11:52:28.280Z,1007.37
2018-05-02T11:53:28.186Z,1007.40
2018-05-02T11:54:28.521Z,1007.35
2018-05-02T11:55:28.302Z,1007.38
2018-05-02T11:56:28.284Z,1007.39
2018-05-02T11:57:28.756Z,1007.39
2018-05-02T11:58:28.357Z,1007.40
2018-05-02T11:59:28.423Z,1007.43
2018-05-02T12:00:28.777Z,1007.38
2018-05-02T12:01:28.519Z,1007.38
2018-05-02T12:02:28.567Z,1007.34
2018-05-02T12:03:28.568Z,1007.34
2018-05-02T12:04:28.663Z,1007.28
2018-05-02T12:05:28.624Z,1007.25
2018-05-02T12:06:28.910Z,1007.28